| time (UTC) | temp F | wind direction | speed knots | gust knots | rain 1hr in | rain 24hr in | rain mn in | humidity % | barometer mb |
| 20260903131738 | 84 | 129 | 0.0 | 0.0 | 0.00 | 0.00 | 0.00 | 32 | 1032.5 |
| 20260903131237 | 83 | 162 | 0.9 | 0.9 | 0.00 | 0.00 | 0.00 | 30 | 1032.2 |
| 20260903130737 | 82 | 222 | 1.7 | 1.7 | 0.00 | 0.00 | 0.00 | 35 | 1032.2 |
| 20260903130239 | 82 | 60 | 0.0 | 0.0 | 0.00 | 0.00 | 0.00 | 34 | 1032.2 |
| 20260903125737 | 84 | 174 | 0.0 | 0.0 | 0.00 | 0.00 | 0.00 | 35 | 1032.2 |
| 20260903125237 | 83 | 348 | 1.7 | 1.7 | 0.00 | 0.00 | 0.00 | 37 | 1032.2 |
| 20260903124738 | 84 | 170 | 0.0 | 0.0 | 0.00 | 0.00 | 0.00 | 31 | 1032.2 |
| 20260903124245 | 83 | 169 | 1.7 | 1.7 | 0.00 | 0.00 | 0.00 | 33 | 1032.5 |
| 20260903123737 | 82 | 148 | 0.0 | 0.0 | 0.00 | 0.00 | 0.00 | 37 | 1032.5 |
| 20260903123236 | 81 | 30 | 0.0 | 0.0 | 0.00 | 0.00 | 0.00 | 36 | 1032.5 |
| 20260903122739 | 82 | 148 | 0.0 | 0.0 | 0.00 | 0.00 | 0.00 | 35 | 1032.8 |
| 20260903122236 | 82 | 68 | 1.7 | 1.7 | 0.00 | 0.00 | 0.00 | 34 | 1032.8 |
| 20260903121739 | 81 | 169 | 0.0 | 0.0 | 0.00 | 0.00 | 0.00 | 36 | 1032.8 |
| 20260903121236 | 82 | 47 | 1.7 | 1.7 | 0.00 | 0.00 | 0.00 | 35 | 1032.5 |
| 20260903120736 | 82 | 61 | 1.7 | 1.7 | 0.00 | 0.00 | 0.00 | 34 | 1032.5 |
| 20260903120240 | 83 | 183 | 0.0 | 0.0 | 0.00 | 0.00 | 0.00 | 35 | 1032.5 |
| 20260903115737 | 83 | 354 | 0.0 | 0.0 | 0.00 | 0.00 | 0.00 | 36 | 1033.2 |
| 20260903115237 | 83 | 276 | 0.0 | 0.0 | 0.00 | 0.00 | 0.00 | 35 | 1033.2 |
| 20260903114736 | 82 | 228 | 0.0 | 0.0 | 0.00 | 0.00 | 0.00 | 36 | 1033.2 |
| 20260903114237 | 81 | 360 | 0.9 | 0.9 | 0.00 | 0.00 | 0.00 | 38 | 1033.2 |
| 20260903113736 | 82 | 120 | 0.0 | 0.0 | 0.00 | 0.00 | 0.00 | 37 | 1033.2 |
| 20260903113238 | 82 | 125 | 0.0 | 0.0 | 0.00 | 0.00 | 0.00 | 38 | 1033.2 |
| 20260903112736 | 83 | 264 | 1.7 | 1.7 | 0.00 | 0.00 | 0.00 | 39 | 1033.2 |
| 20260903112236 | 82 | 132 | 1.7 | 1.7 | 0.00 | 0.00 | 0.00 | 38 | 1033.2 |
| 20260903111737 | 81 | 118 | 0.0 | 0.0 | 0.00 | 0.00 | 0.00 | 39 | 1033.2 |
| 20260903111236 | 82 | 114 | 0.0 | 0.0 | 0.00 | 0.00 | 0.00 | 40 | 1033.2 |
| 20260903110737 | 82 | 264 | 3.5 | 3.5 | 0.00 | 0.00 | 0.00 | 41 | 1033.2 |
| 20260903110237 | 83 | 258 | 1.7 | 1.7 | 0.00 | 0.00 | 0.00 | 39 | 1033.2 |
| 20260903105738 | 83 | 174 | 1.7 | 1.7 | 0.00 | 0.00 | 0.00 | 37 | 1033.2 |
| 20260903105238 | 82 | 354 | 1.7 | 1.7 | 0.00 | 0.00 | 0.00 | 37 | 1033.2 |
| 20260903104737 | 80 | 176 | 1.7 | 1.7 | 0.00 | 0.00 | 0.00 | 39 | 1033.2 |
| 20260903104236 | 80 | 241 | 1.7 | 1.7 | 0.00 | 0.00 | 0.00 | 43 | 1033.5 |
| 20260903103737 | 81 | 246 | 0.0 | 0.0 | 0.00 | 0.00 | 0.00 | 40 | 1033.5 |
| 20260903103236 | 81 | 132 | 0.9 | 0.9 | 0.00 | 0.00 | 0.00 | 42 | 1033.5 |
| 20260903102736 | 79 | 288 | 0.0 | 0.0 | 0.00 | 0.00 | 0.00 | 41 | 1033.9 |
| 20260903102237 | 80 | 186 | 0.0 | 0.0 | 0.00 | 0.00 | 0.00 | 44 | 1033.9 |
| 20260903101736 | 81 | 204 | 0.0 | 0.0 | 0.00 | 0.00 | 0.00 | 37 | 1033.9 |
| 20260903101236 | 79 | 18 | 0.9 | 0.9 | 0.00 | 0.00 | 0.00 | 42 | 1033.9 |
| 20260903100736 | 78 | 155 | 0.0 | 0.0 | 0.00 | 0.00 | 0.00 | 44 | 1033.9 |
| 20260903100237 | 79 | 92 | 1.7 | 1.7 | 0.00 | 0.00 | 0.00 | 41 | 1033.9 |
| 20260903095737 | 81 | 30 | 0.9 | 0.9 | 0.00 | 0.00 | 0.00 | 41 | 1033.9 |
| 20260903095236 | 81 | 342 | 0.0 | 0.0 | 0.00 | 0.00 | 0.00 | 38 | 1033.9 |
| 20260903094737 | 80 | 294 | 1.7 | 1.7 | 0.00 | 0.00 | 0.00 | 38 | 1033.9 |
| 20260903094240 | 78 | 192 | 0.0 | 0.0 | 0.00 | 0.00 | 0.00 | 45 | 1034.2 |
| 20260903093737 | 77 | 90 | 1.7 | 1.7 | 0.00 | 0.00 | 0.00 | 42 | 1034.2 |
| 20260903093236 | 81 | 253 | 0.0 | 0.0 | 0.00 | 0.00 | 0.00 | 42 | 1034.2 |
| 20260903092738 | 80 | 337 | 1.7 | 1.7 | 0.00 | 0.00 | 0.00 | 42 | 1033.9 |
| 20260903092239 | 80 | 155 | 1.7 | 1.7 | 0.00 | 0.00 | 0.00 | 45 | 1033.9 |
| 20260903091737 | 80 | 180 | 1.7 | 1.7 | 0.00 | 0.00 | 0.00 | 44 | 1033.9 |
| 20260903091237 | 80 | 336 | 1.7 | 1.7 | 0.00 | 0.00 | 0.00 | 46 | 1034.2 |
| 20260903090738 | 79 | 252 | 0.0 | 0.0 | 0.00 | 0.00 | 0.00 | 45 | 1034.2 |
| 20260903090236 | 79 | 68 | 3.5 | 3.5 | 0.00 | 0.00 | 0.00 | 43 | 1034.2 |
| 20260903085738 | 79 | 158 | 0.9 | 0.9 | 0.00 | 0.00 | 0.00 | 44 | 1034.2 |
| 20260903085237 | 79 | 258 | 2.6 | 2.6 | 0.00 | 0.00 | 0.00 | 44 | 1034.2 |
| 20260903084736 | 78 | 192 | 1.7 | 1.7 | 0.00 | 0.00 | 0.00 | 46 | 1034.2 |
| 20260903084237 | 79 | 252 | 0.0 | 0.0 | 0.00 | 0.00 | 0.00 | 46 | 1034.2 |
| 20260903083736 | 78 | 198 | 0.0 | 0.0 | 0.00 | 0.00 | 0.00 | 45 | 1034.2 |
| 20260903083236 | 77 | 294 | 0.9 | 0.9 | 0.00 | 0.00 | 0.00 | 52 | 1034.2 |
| 20260903082737 | 79 | 40 | 0.0 | 0.0 | 0.00 | 0.00 | 0.00 | 54 | 1034.2 |
| 20260903082236 | 80 | 150 | 0.0 | 0.0 | 0.00 | 0.00 | 0.00 | 47 | 1034.2 |
| 20260903081736 | 78 | 282 | 0.0 | 0.0 | 0.00 | 0.00 | 0.00 | 45 | 1034.2 |
| 20260903081239 | 77 | 198 | 0.0 | 0.0 | 0.00 | 0.00 | 0.00 | 50 | 1034.2 |
| 20260903080738 | 78 | 222 | 0.0 | 0.0 | 0.00 | 0.00 | 0.00 | 55 | 1034.2 |
| 20260903080237 | 80 | 84 | 1.7 | 1.7 | 0.00 | 0.00 | 0.00 | 50 | 1034.2 |
| 20260903075736 | 79 | 12 | 0.0 | 0.0 | 0.00 | 0.00 | 0.00 | 50 | 1033.9 |
| 20260903075236 | 78 | 162 | 0.0 | 0.0 | 0.00 | 0.00 | 0.00 | 48 | 1033.9 |
| 20260903074738 | 78 | 253 | 1.7 | 1.7 | 0.00 | 0.00 | 0.00 | 52 | 1033.9 |
| 20260903074238 | 78 | 342 | 0.0 | 0.0 | 0.00 | 0.00 | 0.00 | 55 | 1033.9 |
| 20260903073736 | 78 | 192 | 0.0 | 0.0 | 0.00 | 0.00 | 0.00 | 54 | 1033.9 |
| 20260903073236 | 77 | 210 | 0.0 | 0.0 | 0.00 | 0.00 | 0.00 | 52 | 1033.9 |
| 20260903072737 | 78 | 30 | 0.0 | 0.0 | 0.00 | 0.00 | 0.00 | 54 | 1034.2 |
| 20260903072236 | 77 | 90 | 0.0 | 0.0 | 0.00 | 0.00 | 0.00 | 55 | 1034.2 |
| 20260903071736 | 77 | 162 | 0.0 | 0.0 | 0.00 | 0.00 | 0.00 | 55 | 1034.2 |
| 20260903071237 | 77 | 168 | 0.0 | 0.0 | 0.00 | 0.00 | 0.00 | 54 | 1034.2 |
| 20260903070737 | 77 | 144 | 0.0 | 0.0 | 0.00 | 0.00 | 0.00 | 54 | 1034.2 |
| 20260903070237 | 77 | 182 | 0.0 | 0.0 | 0.00 | 0.00 | 0.00 | 54 | 1034.2 |
| 20260903065737 | 77 | 144 | 0.0 | 0.0 | 0.00 | 0.00 | 0.00 | 53 | 1034.2 |
| 20260903065236 | 76 | 150 | 0.0 | 0.0 | 0.00 | 0.00 | 0.00 | 56 | 1034.2 |
| 20260903064736 | 76 | 150 | 0.0 | 0.0 | 0.00 | 0.00 | 0.00 | 54 | 1034.2 |
| 20260903064237 | 75 | 138 | 0.0 | 0.0 | 0.00 | 0.00 | 0.00 | 56 | 1033.9 |
| 20260903063736 | 76 | 135 | 0.0 | 0.0 | 0.00 | 0.00 | 0.00 | 56 | 1033.9 |
| 20260903063240 | 75 | 158 | 0.0 | 0.0 | 0.00 | 0.00 | 0.00 | 55 | 1033.9 |
| 20260903062736 | 77 | 163 | 0.0 | 0.0 | 0.00 | 0.00 | 0.00 | 53 | 1033.9 |
| 20260903062237 | 76 | 162 | 0.0 | 0.0 | 0.00 | 0.00 | 0.00 | 54 | 1033.9 |
| 20260903061747 | 76 | 186 | 0.0 | 0.0 | 0.00 | 0.00 | 0.00 | 55 | 1033.9 |
| 20260903061237 | 75 | 169 | 0.0 | 0.0 | 0.00 | 0.00 | 0.00 | 57 | 1033.9 |
| 20260903060736 | 74 | 170 | 0.0 | 0.0 | 0.00 | 0.00 | 0.00 | 58 | 1033.9 |
| 20260903060237 | 74 | 165 | 0.0 | 0.0 | 0.00 | 0.00 | 0.00 | 53 | 1033.9 |
| 20260903055736 | 71 | 162 | 0.0 | 0.0 | 0.00 | 0.00 | 0.00 | 58 | 1033.9 |
| 20260903055237 | 69 | 162 | 0.0 | 0.0 | 0.00 | 0.00 | 0.00 | 60 | 1033.9 |
| 20260903054737 | 67 | 198 | 0.0 | 0.0 | 0.00 | 0.00 | 0.00 | 62 | 1033.9 |
| 20260903054236 | 65 | 276 | 0.0 | 0.0 | 0.00 | 0.00 | 0.00 | 70 | 1033.9 |
| 20260903053736 | 62 | 173 | 0.0 | 0.0 | 0.00 | 0.00 | 0.00 | 72 | 1033.9 |
| 20260903053237 | 61 | 221 | 0.0 | 0.0 | 0.00 | 0.00 | 0.00 | 80 | 1033.9 |
| 20260903052736 | 61 | 55 | 0.0 | 0.0 | 0.00 | 0.00 | 0.00 | 80 | 1033.5 |
| 20260903052236 | 61 | 55 | 0.0 | 0.0 | 0.00 | 0.00 | 0.00 | 79 | 1033.5 |
| 20260903051736 | 61 | 302 | 0.0 | 0.0 | 0.00 | 0.00 | 0.00 | 78 | 1033.5 |
| 20260903051237 | 61 | 132 | 0.0 | 0.0 | 0.00 | 0.00 | 0.00 | 78 | 1033.5 |
| 20260903050736 | 61 | 308 | 0.0 | 0.0 | 0.00 | 0.00 | 0.00 | 80 | 1033.5 |
| 20260903050236 | 60 | 96 | 0.0 | 0.0 | 0.00 | 0.00 | 0.00 | 81 | 1033.5 |
| 20260903045737 | 60 | 96 | 0.0 | 0.0 | 0.00 | 0.00 | 0.00 | 80 | 1033.2 |
| 20260903045239 | 60 | 12 | 0.0 | 0.0 | 0.00 | 0.00 | 0.00 | 80 | 1033.2 |
| 20260903044736 | 60 | 312 | 0.0 | 0.0 | 0.00 | 0.00 | 0.00 | 79 | 1033.2 |
| 20260903044237 | 60 | 72 | 0.0 | 0.0 | 0.00 | 0.00 | 0.00 | 80 | 1033.2 |
| 20260903043736 | 60 | 112 | 0.0 | 0.0 | 0.00 | 0.00 | 0.00 | 80 | 1033.2 |
| 20260903043237 | 60 | 124 | 0.0 | 0.0 | 0.00 | 0.00 | 0.00 | 79 | 1033.2 |
| 20260903042736 | 61 | 74 | 0.0 | 0.0 | 0.00 | 0.00 | 0.00 | 77 | 1033.2 |
| 20260903042236 | 62 | 95 | 0.0 | 0.0 | 0.00 | 0.00 | 0.00 | 75 | 1033.2 |
| 20260903041736 | 62 | 37 | 0.0 | 0.0 | 0.00 | 0.00 | 0.00 | 74 | 1033.2 |
| 20260903041236 | 62 | 312 | 0.0 | 0.0 | 0.00 | 0.00 | 0.00 | 74 | 1032.8 |
| 20260903040736 | 63 | 222 | 0.0 | 0.0 | 0.00 | 0.00 | 0.00 | 74 | 1032.8 |
| 20260903040237 | 63 | 348 | 0.0 | 0.0 | 0.00 | 0.00 | 0.00 | 73 | 1032.8 |
| 20260903035737 | 62 | 336 | 0.0 | 0.0 | 0.00 | 0.00 | 0.00 | 73 | 1033.2 |
| 20260903035237 | 62 | 354 | 0.0 | 0.0 | 0.00 | 0.00 | 0.00 | 75 | 1033.2 |
| 20260903034736 | 62 | 348 | 0.0 | 0.0 | 0.00 | 0.00 | 0.00 | 75 | 1033.2 |
| 20260903034236 | 61 | 342 | 0.0 | 0.0 | 0.00 | 0.00 | 0.00 | 76 | 1032.8 |
| 20260903033737 | 61 | 6 | 0.0 | 0.0 | 0.00 | 0.00 | 0.00 | 77 | 1032.8 |
| 20260903033237 | 61 | 336 | 0.0 | 0.0 | 0.00 | 0.00 | 0.00 | 77 | 1032.8 |
| 20260903032736 | 61 | 330 | 0.0 | 0.0 | 0.00 | 0.00 | 0.00 | 78 | 1033.2 |
| 20260903032236 | 62 | 26 | 0.0 | 0.0 | 0.00 | 0.00 | 0.00 | 77 | 1033.2 |
| 20260903031736 | 62 | 353 | 0.0 | 0.0 | 0.00 | 0.00 | 0.00 | 77 | 1033.2 |
| 20260903031236 | 61 | 6 | 0.0 | 0.0 | 0.00 | 0.00 | 0.00 | 78 | 1032.8 |
| 20260903030736 | 62 | 156 | 0.0 | 0.0 | 0.00 | 0.00 | 0.00 | 78 | 1032.8 |
| 20260903030238 | 62 | 336 | 0.0 | 0.0 | 0.00 | 0.00 | 0.00 | 76 | 1032.8 |
| 20260903025736 | 62 | 354 | 0.0 | 0.0 | 0.00 | 0.00 | 0.00 | 75 | 1033.2 |
| 20260903025236 | 63 | 18 | 0.0 | 0.0 | 0.00 | 0.00 | 0.00 | 76 | 1033.2 |
| 20260903024736 | 63 | 360 | 0.0 | 0.0 | 0.00 | 0.00 | 0.00 | 74 | 1033.2 |
| 20260903024238 | 64 | 36 | 0.0 | 0.0 | 0.00 | 0.00 | 0.00 | 74 | 1033.2 |
| 20260903023737 | 63 | 340 | 0.0 | 0.0 | 0.00 | 0.00 | 0.00 | 74 | 1033.2 |
| 20260903023237 | 63 | 353 | 0.0 | 0.0 | 0.00 | 0.00 | 0.00 | 74 | 1033.2 |
| 20260903022736 | 63 | 336 | 0.0 | 0.0 | 0.00 | 0.00 | 0.00 | 75 | 1033.2 |
| 20260903022236 | 64 | 134 | 0.0 | 0.0 | 0.00 | 0.00 | 0.00 | 71 | 1033.2 |
| 20260903021737 | 64 | 292 | 0.0 | 0.0 | 0.00 | 0.00 | 0.00 | 72 | 1033.2 |
| 20260903021237 | 64 | 324 | 0.0 | 0.0 | 0.00 | 0.00 | 0.00 | 72 | 1033.2 |
| 20260903020737 | 64 | 318 | 0.0 | 0.0 | 0.00 | 0.00 | 0.00 | 74 | 1033.2 |
| 20260903020236 | 64 | 270 | 0.0 | 0.0 | 0.00 | 0.00 | 0.00 | 73 | 1033.2 |
| 20260903015736 | 64 | 150 | 0.0 | 0.0 | 0.00 | 0.00 | 0.00 | 71 | 1033.2 |
| 20260903015236 | 64 | 354 | 0.0 | 0.0 | 0.00 | 0.00 | 0.00 | 71 | 1033.2 |
| 20260903014736 | 64 | 30 | 0.0 | 0.0 | 0.00 | 0.00 | 0.00 | 71 | 1033.2 |
| 20260903014237 | 64 | 246 | 0.0 | 0.0 | 0.00 | 0.00 | 0.00 | 71 | 1033.2 |
| 20260903013737 | 64 | 319 | 0.0 | 0.0 | 0.00 | 0.00 | 0.00 | 71 | 1033.2 |
| 20260903013237 | 63 | 24 | 0.0 | 0.0 | 0.00 | 0.00 | 0.00 | 74 | 1033.2 |
| 20260903012737 | 64 | 135 | 0.0 | 0.0 | 0.00 | 0.00 | 0.00 | 73 | 1033.2 |
| 20260903012237 | 63 | 269 | 0.0 | 0.0 | 0.00 | 0.00 | 0.00 | 72 | 1033.2 |
| 20260903011736 | 64 | 221 | 0.0 | 0.0 | 0.00 | 0.00 | 0.00 | 71 | 1033.2 |
| 20260903011237 | 64 | 36 | 0.0 | 0.0 | 0.00 | 0.00 | 0.00 | 70 | 1033.2 |
| 20260903010737 | 64 | 36 | 0.0 | 0.0 | 0.00 | 0.00 | 0.00 | 70 | 1033.2 |
| 20260903010236 | 64 | 324 | 0.0 | 0.0 | 0.00 | 0.00 | 0.00 | 72 | 1033.2 |
| 20260903005737 | 64 | 300 | 0.0 | 0.0 | 0.00 | 0.00 | 0.00 | 72 | 1033.2 |
| 20260903005236 | 64 | 306 | 0.0 | 0.0 | 0.00 | 0.00 | 0.00 | 71 | 1033.2 |
| 20260903004736 | 64 | 31 | 0.0 | 0.0 | 0.00 | 0.00 | 0.00 | 71 | 1033.2 |
| 20260903004237 | 64 | 294 | 0.0 | 0.0 | 0.00 | 0.00 | 0.00 | 69 | 1033.2 |
| 20260903003737 | 64 | 46 | 0.0 | 0.0 | 0.00 | 0.00 | 0.00 | 70 | 1033.2 |
| 20260903003236 | 64 | 300 | 0.0 | 0.0 | 0.00 | 0.00 | 0.00 | 70 | 1033.2 |
| 20260903002736 | 64 | 116 | 0.0 | 0.0 | 0.00 | 0.00 | 0.00 | 70 | 1032.8 |
| 20260903002236 | 65 | 249 | 0.0 | 0.0 | 0.00 | 0.00 | 0.00 | 68 | 1032.8 |
| 20260903001736 | 65 | 37 | 1.7 | 1.7 | 0.00 | 0.00 | 0.00 | 67 | 1032.8 |
| 20260903001237 | 65 | 306 | 0.9 | 0.9 | 0.00 | 0.00 | 0.00 | 65 | 1033.2 |
| 20260903000736 | 65 | 305 | 0.0 | 0.0 | 0.00 | 0.00 | 0.00 | 67 | 1033.2 |
| 20260903000237 | 65 | 18 | 0.0 | 0.0 | 0.00 | 0.00 | 0.00 | 67 | 1033.2 |
| 20260902235737 | 65 | 253 | 0.0 | 0.0 | 0.00 | 0.00 | 0.00 | 67 | 1033.2 |
| 20260902235237 | 66 | 282 | 0.0 | 0.0 | 0.00 | 0.00 | 0.00 | 65 | 1033.2 |
| 20260902234737 | 66 | 29 | 0.0 | 0.0 | 0.00 | 0.00 | 0.00 | 67 | 1033.2 |
| 20260902234237 | 66 | 342 | 1.7 | 1.7 | 0.00 | 0.00 | 0.00 | 65 | 1032.8 |
| 20260902233736 | 65 | 282 | 0.0 | 0.0 | 0.00 | 0.00 | 0.00 | 64 | 1032.8 |
| 20260902233236 | 66 | 295 | 0.0 | 0.0 | 0.00 | 0.00 | 0.00 | 63 | 1032.8 |
| 20260902232737 | 66 | 307 | 0.0 | 0.0 | 0.00 | 0.00 | 0.00 | 66 | 1033.2 |
| 20260902232236 | 65 | 10 | 1.7 | 1.7 | 0.00 | 0.00 | 0.00 | 63 | 1033.2 |
| 20260902231736 | 65 | 348 | 0.0 | 0.0 | 0.00 | 0.00 | 0.00 | 67 | 1033.2 |
| 20260902231236 | 65 | 316 | 1.7 | 1.7 | 0.00 | 0.00 | 0.00 | 64 | 1033.2 |
| 20260902230736 | 65 | 27 | 0.0 | 0.0 | 0.00 | 0.00 | 0.00 | 64 | 1033.2 |
| 20260902230236 | 65 | 24 | 0.0 | 0.0 | 0.00 | 0.00 | 0.00 | 64 | 1033.2 |
| 20260902225738 | 66 | 72 | 0.0 | 0.0 | 0.00 | 0.00 | 0.00 | 63 | 1033.2 |
| 20260902225239 | 66 | 116 | 0.0 | 0.0 | 0.00 | 0.00 | 0.00 | 61 | 1033.2 |
| 20260902224736 | 67 | 264 | 1.7 | 1.7 | 0.00 | 0.00 | 0.00 | 61 | 1033.2 |
| 20260902224236 | 67 | 326 | 1.7 | 1.7 | 0.00 | 0.00 | 0.00 | 58 | 1033.2 |
| 20260902223736 | 66 | 347 | 0.0 | 0.0 | 0.00 | 0.00 | 0.00 | 56 | 1033.2 |
| 20260902223236 | 67 | 354 | 0.0 | 0.0 | 0.00 | 0.00 | 0.00 | 56 | 1033.2 |
| 20260902222737 | 67 | 358 | 0.0 | 0.0 | 0.00 | 0.00 | 0.00 | 59 | 1032.8 |
| 20260902222237 | 67 | 341 | 0.0 | 0.0 | 0.00 | 0.00 | 0.00 | 60 | 1032.8 |
| 20260902221736 | 66 | 4 | 0.0 | 0.0 | 0.00 | 0.00 | 0.00 | 58 | 1032.8 |
| 20260902221236 | 67 | 286 | 0.0 | 0.0 | 0.00 | 0.00 | 0.00 | 59 | 1032.8 |
| 20260902220737 | 66 | 9 | 0.0 | 0.0 | 0.00 | 0.00 | 0.00 | 58 | 1032.8 |
| 20260902220237 | 67 | 293 | 0.0 | 0.0 | 0.00 | 0.00 | 0.00 | 56 | 1032.8 |
| 20260902215736 | 67 | 340 | 1.7 | 1.7 | 0.00 | 0.00 | 0.01 | 55 | 1032.8 |
| 20260902215237 | 67 | 353 | 0.0 | 0.0 | 0.00 | 0.00 | 0.01 | 59 | 1032.8 |
| 20260902214736 | 67 | 225 | 0.0 | 0.0 | 0.00 | 0.00 | 0.01 | 59 | 1032.8 |
| 20260902214236 | 67 | 316 | 1.7 | 1.7 | 0.00 | 0.00 | 0.01 | 58 | 1032.8 |
| 20260902213736 | 67 | 321 | 2.6 | 2.6 | 0.00 | 0.00 | 0.01 | 61 | 1032.8 |
| 20260902213236 | 67 | 354 | 0.0 | 0.0 | 0.00 | 0.00 | 0.01 | 61 | 1032.8 |
| 20260902212736 | 67 | 330 | 0.0 | 0.0 | 0.00 | 0.00 | 0.01 | 58 | 1032.8 |
| 20260902212236 | 67 | 346 | 1.7 | 1.7 | 0.00 | 0.00 | 0.01 | 57 | 1032.8 |
| 20260902211737 | 67 | 10 | 1.7 | 1.7 | 0.00 | 0.00 | 0.01 | 60 | 1032.8 |
| 20260902211236 | 67 | 283 | 0.0 | 0.0 | 0.00 | 0.00 | 0.01 | 66 | 1032.8 |
| 20260902210736 | 68 | 313 | 0.0 | 0.0 | 0.00 | 0.00 | 0.01 | 62 | 1032.8 |
| 20260902210238 | 68 | 318 | 0.0 | 0.0 | 0.00 | 0.00 | 0.01 | 61 | 1032.8 |
| 20260902205736 | 68 | 79 | 0.0 | 0.0 | 0.00 | 0.00 | 0.01 | 61 | 1032.8 |
| 20260902205236 | 67 | 295 | 0.0 | 0.0 | 0.00 | 0.00 | 0.01 | 62 | 1032.8 |
| 20260902204737 | 67 | 344 | 0.0 | 0.0 | 0.00 | 0.00 | 0.01 | 63 | 1032.8 |
| 20260902204236 | 67 | 276 | 0.0 | 0.0 | 0.00 | 0.00 | 0.01 | 65 | 1032.8 |
| 20260902203736 | 68 | 42 | 1.7 | 1.7 | 0.00 | 0.00 | 0.01 | 65 | 1032.8 |
| 20260902203237 | 68 | 276 | 2.6 | 2.6 | 0.00 | 0.00 | 0.01 | 59 | 1032.8 |
| 20260902202737 | 68 | 354 | 0.0 | 0.0 | 0.00 | 0.00 | 0.01 | 59 | 1032.5 |
| 20260902202237 | 68 | 358 | 1.7 | 1.7 | 0.00 | 0.00 | 0.01 | 65 | 1032.5 |
| 20260902201736 | 67 | 336 | 1.7 | 1.7 | 0.00 | 0.00 | 0.01 | 63 | 1032.5 |
| 20260902201241 | 67 | 303 | 1.7 | 1.7 | 0.00 | 0.00 | 0.01 | 68 | 1032.5 |
| 20260902200736 | 67 | 342 | 1.7 | 1.7 | 0.00 | 0.00 | 0.01 | 69 | 1032.5 |
| 20260902200236 | 67 | 358 | 2.6 | 2.6 | 0.00 | 0.00 | 0.01 | 73 | 1032.5 |
| 20260902195739 | 68 | 324 | 1.7 | 1.7 | 0.00 | 0.00 | 0.01 | 70 | 1032.8 |
| 20260902195236 | 68 | 73 | 0.0 | 0.0 | 0.00 | 0.00 | 0.01 | 66 | 1032.8 |
| 20260902194736 | 68 | 80 | 1.7 | 1.7 | 0.00 | 0.00 | 0.01 | 71 | 1032.8 |
| 20260902194237 | 69 | 58 | 2.6 | 2.6 | 0.00 | 0.00 | 0.01 | 70 | 1032.8 |
| 20260902193737 | 69 | 72 | 1.7 | 1.7 | 0.00 | 0.00 | 0.01 | 69 | 1032.8 |
| 20260902193237 | 70 | 326 | 1.7 | 1.7 | 0.00 | 0.00 | 0.01 | 61 | 1032.8 |
| 20260902192736 | 71 | 317 | 0.9 | 0.9 | 0.00 | 0.00 | 0.01 | 59 | 1032.8 |
| 20260902192236 | 71 | 45 | 0.0 | 0.0 | 0.00 | 0.00 | 0.01 | 63 | 1032.8 |
| 20260902191736 | 71 | 30 | 0.0 | 0.0 | 0.00 | 0.00 | 0.01 | 61 | 1032.8 |
| 20260902191237 | 71 | 2 | 1.7 | 1.7 | 0.00 | 0.00 | 0.01 | 64 | 1032.8 |
| 20260902190737 | 71 | 54 | 1.7 | 1.7 | 0.00 | 0.00 | 0.01 | 63 | 1032.8 |
| 20260902190236 | 71 | 12 | 1.7 | 1.7 | 0.00 | 0.00 | 0.01 | 59 | 1032.8 |
| 20260902185737 | 71 | 266 | 0.9 | 0.9 | 0.00 | 0.00 | 0.01 | 59 | 1032.5 |
| 20260902185236 | 72 | 6 | 0.0 | 0.0 | 0.00 | 0.00 | 0.01 | 59 | 1032.5 |
| 20260902184737 | 71 | 234 | 0.0 | 0.0 | 0.00 | 0.00 | 0.01 | 60 | 1032.5 |
| 20260902184236 | 71 | 266 | 0.0 | 0.0 | 0.00 | 0.00 | 0.01 | 61 | 1032.5 |
| 20260902183736 | 71 | 7 | 1.7 | 1.7 | 0.00 | 0.00 | 0.01 | 63 | 1032.5 |
| 20260902183237 | 72 | 10 | 0.0 | 0.0 | 0.00 | 0.00 | 0.01 | 60 | 1032.5 |
| 20260902182737 | 72 | 320 | 0.0 | 0.0 | 0.00 | 0.00 | 0.01 | 62 | 1031.8 |
| 20260902182236 | 72 | 342 | 1.7 | 1.7 | 0.00 | 0.00 | 0.01 | 61 | 1031.8 |
| 20260902181737 | 72 | 31 | 0.0 | 0.0 | 0.00 | 0.00 | 0.01 | 60 | 1031.8 |
| 20260902181236 | 71 | 54 | 0.9 | 0.9 | 0.00 | 0.00 | 0.01 | 61 | 1031.8 |
| 20260902180737 | 72 | 352 | 1.7 | 1.7 | 0.00 | 0.00 | 0.01 | 63 | 1031.8 |
| 20260902180238 | 72 | 342 | 1.7 | 1.7 | 0.00 | 0.00 | 0.01 | 60 | 1031.8 |
| 20260902175736 | 72 | 283 | 1.7 | 1.7 | 0.00 | 0.00 | 0.01 | 62 | 1031.5 |
| 20260902175238 | 72 | 281 | 1.7 | 1.7 | 0.00 | 0.00 | 0.01 | 60 | 1031.5 |
| 20260902174737 | 72 | 306 | 1.7 | 1.7 | 0.00 | 0.00 | 0.01 | 60 | 1031.5 |
| 20260902174237 | 72 | 292 | 1.7 | 1.7 | 0.00 | 0.00 | 0.01 | 60 | 1031.5 |
| 20260902173736 | 72 | 343 | 0.0 | 0.0 | 0.00 | 0.00 | 0.01 | 59 | 1031.5 |
| 20260902173237 | 72 | 354 | 0.0 | 0.0 | 0.00 | 0.00 | 0.01 | 60 | 1031.5 |
| 20260902172737 | 72 | 16 | 0.0 | 0.0 | 0.00 | 0.00 | 0.01 | 61 | 1031.5 |
| 20260902172237 | 72 | 12 | 1.7 | 1.7 | 0.00 | 0.00 | 0.01 | 60 | 1031.5 |
| 20260902171737 | 72 | 330 | 0.0 | 0.0 | 0.00 | 0.00 | 0.01 | 61 | 1031.5 |
| 20260902171236 | 72 | 304 | 1.7 | 1.7 | 0.00 | 0.00 | 0.01 | 60 | 1031.5 |
| 20260902170737 | 72 | 6 | 1.7 | 1.7 | 0.00 | 0.00 | 0.01 | 62 | 1031.5 |
| 20260902170236 | 73 | 328 | 1.7 | 1.7 | 0.00 | 0.00 | 0.01 | 61 | 1031.5 |
| 20260902165736 | 73 | 312 | 0.0 | 0.0 | 0.00 | 0.00 | 0.01 | 60 | 1031.5 |
| 20260902165236 | 73 | 342 | 0.0 | 0.0 | 0.00 | 0.00 | 0.01 | 60 | 1031.5 |
| 20260902164739 | 73 | 2 | 1.7 | 1.7 | 0.00 | 0.00 | 0.01 | 60 | 1031.5 |
| 20260902164237 | 73 | 358 | 0.0 | 0.0 | 0.00 | 0.00 | 0.01 | 59 | 1031.5 |
| 20260902163736 | 73 | 12 | 2.6 | 2.6 | 0.00 | 0.00 | 0.01 | 58 | 1031.5 |
| 20260902163238 | 73 | 324 | 2.6 | 2.6 | 0.00 | 0.00 | 0.01 | 60 | 1031.5 |
| 20260902162737 | 73 | 8 | 1.7 | 1.7 | 0.00 | 0.00 | 0.01 | 59 | 1031.2 |
| 20260902162237 | 73 | 342 | 1.7 | 1.7 | 0.00 | 0.00 | 0.01 | 61 | 1031.2 |
| 20260902161737 | 74 | 344 | 1.7 | 1.7 | 0.00 | 0.00 | 0.01 | 60 | 1031.2 |
| 20260902161236 | 74 | 321 | 1.7 | 1.7 | 0.00 | 0.00 | 0.01 | 57 | 1031.5 |
| 20260902160736 | 74 | 338 | 1.7 | 1.7 | 0.00 | 0.00 | 0.01 | 60 | 1031.5 |
| 20260902160237 | 75 | 304 | 1.7 | 1.7 | 0.00 | 0.00 | 0.01 | 55 | 1031.5 |
| 20260902155736 | 75 | 300 | 1.7 | 1.7 | 0.00 | 0.00 | 0.01 | 56 | 1031.5 |
| 20260902155237 | 75 | 315 | 0.0 | 0.0 | 0.00 | 0.00 | 0.01 | 59 | 1031.5 |
| 20260902154736 | 75 | 334 | 0.9 | 0.9 | 0.00 | 0.00 | 0.01 | 56 | 1031.5 |
| 20260902154236 | 76 | 288 | 0.0 | 0.0 | 0.00 | 0.00 | 0.01 | 56 | 1031.5 |
| 20260902153737 | 76 | 306 | 0.0 | 0.0 | 0.00 | 0.00 | 0.01 | 57 | 1031.5 |
| 20260902153237 | 76 | 342 | 0.0 | 0.0 | 0.00 | 0.00 | 0.01 | 58 | 1031.5 |
| 20260902152737 | 76 | 324 | 0.0 | 0.0 | 0.00 | 0.00 | 0.01 | 56 | 1031.5 |
| 20260902152236 | 76 | 338 | 0.0 | 0.0 | 0.00 | 0.00 | 0.01 | 56 | 1031.5 |
| 20260902151736 | 76 | 303 | 1.7 | 1.7 | 0.00 | 0.00 | 0.01 | 57 | 1031.5 |
| 20260902151236 | 77 | 306 | 0.0 | 0.0 | 0.00 | 0.00 | 0.01 | 55 | 1031.5 |
| 20260902150739 | 78 | 312 | 0.0 | 0.0 | 0.00 | 0.00 | 0.01 | 51 | 1031.5 |
| 20260902150237 | 79 | 222 | 0.0 | 0.0 | 0.00 | 0.00 | 0.01 | 50 | 1031.5 |
| 20260902145737 | 82 | 270 | 0.9 | 0.9 | 0.00 | 0.00 | 0.01 | 44 | 1031.5 |
| 20260902145236 | 82 | 177 | 0.0 | 0.0 | 0.00 | 0.00 | 0.01 | 47 | 1031.5 |
| 20260902144736 | 81 | 204 | 0.0 | 0.0 | 0.00 | 0.00 | 0.01 | 45 | 1031.5 |
| 20260902144237 | 82 | 227 | 1.7 | 1.7 | 0.00 | 0.00 | 0.01 | 43 | 1031.5 |
| 20260902143737 | 82 | 282 | 0.9 | 0.9 | 0.00 | 0.00 | 0.01 | 43 | 1031.5 |
| 20260902143237 | 82 | 60 | 1.7 | 1.7 | 0.00 | 0.00 | 0.01 | 44 | 1031.5 |
| 20260902142738 | 81 | 246 | 0.9 | 0.9 | 0.00 | 0.00 | 0.01 | 42 | 1031.8 |
| 20260902142239 | 80 | 222 | 0.0 | 0.0 | 0.00 | 0.00 | 0.01 | 43 | 1031.8 |
| 20260902141737 | 80 | 171 | 0.0 | 0.0 | 0.00 | 0.00 | 0.01 | 46 | 1031.8 |
| 20260902141238 | 80 | 120 | 0.0 | 0.0 | 0.00 | 0.00 | 0.01 | 45 | 1031.8 |
| 20260902140744 | 80 | 24 | 0.0 | 0.0 | 0.00 | 0.00 | 0.01 | 48 | 1031.8 |
| 20260902140237 | 79 | 138 | 0.9 | 0.9 | 0.00 | 0.00 | 0.01 | 48 | 1031.8 |
| 20260902135736 | 79 | 164 | 0.0 | 0.0 | 0.00 | 0.00 | 0.01 | 46 | 1032.2 |
| 20260902135236 | 79 | 114 | 0.0 | 0.0 | 0.00 | 0.00 | 0.01 | 50 | 1032.2 |
| 20260902134737 | 79 | 192 | 0.0 | 0.0 | 0.00 | 0.00 | 0.01 | 47 | 1032.2 |
| 20260902134236 | 79 | 228 | 0.0 | 0.0 | 0.00 | 0.00 | 0.01 | 45 | 1032.2 |
| 20260902133736 | 80 | 162 | 0.0 | 0.0 | 0.00 | 0.00 | 0.01 | 48 | 1032.2 |
| 20260902133236 | 80 | 131 | 0.0 | 0.0 | 0.00 | 0.00 | 0.01 | 42 | 1032.2 |
| 20260902132736 | 81 | 85 | 1.7 | 1.7 | 0.00 | 0.00 | 0.01 | 47 | 1032.2 |
| 20260902132236 | 80 | 222 | 1.7 | 1.7 | 0.00 | 0.00 | 0.01 | 45 | 1032.2 |